Grays River, WA (98621)

2:13 AM PST on November 20, 2017 (GMT -0800)
MTKMMO | | Change Station

Elev 810 ft 46.35 °N, 123.51 °W | Updated 230 days ago

Overcast
Overcast
42.0 °F
Feels Like 42.0 °F
N
3.0
Wind Variable Wind from ESE

Today
High -- | Low -- °F
--% Chance of Precip.
Yesterday
High -- | Low -- °F
Precip. -- in
Pressure 29.56 in
Visibility 7.0 miles
Clouds Mostly Cloudy 1100 ft
Overcast 1800 ft
Dew Point 40.0 °F
Humidity 92%
Rainfall in
Snow Depth Not available.
7:23 AM 4:36 PM
Waxing Crescent, 3% visible
METAR KAST 200955Z AUTO 19022G32KT 7SM BKN011 OVC018 11/10 A2956 RMK AO2 PK WND 19034/0917 RAE54 SLP008 P0007 T01110100 $
Pressure 29.56 in
Visibility 7.0 miles
Clouds Mostly Cloudy 1100 ft
Overcast 1800 ft
Dew Point 40.0 °F
Humidity 92%
Rainfall in
Snow Depth Not available.
7:23 AM 4:36 PM
Waxing Crescent, 3% visible
METAR KAST 200955Z AUTO 19022G32KT 7SM BKN011 OVC018 11/10 A2956 RMK AO2 PK WND 19034/0917 RAE54 SLP008 P0007 T01110100 $

Get Severe Weather Alerts

Thanks for signing up!

Be on the lookout for a verification email in your inbox.

You'll start receiving the daily forecast at 6 AM.

×

10-Day Weather Forecast

Almanac

Astronomy

Nov. 20, 2017 Rise Set
Actual Time
Civil Twilight
Nautical Twilight
Astronomical Twilight
Moon
Length of Visible Light
Length of Day
Tomorrow will be .
, % of the Moon is Illuminated

Today's Extremes

State Highs State Lows

Community

WunderPhotos

Category 6

Welcome to Category 6. This is the collective home for Weather Underground's featured writeups by Dr. Jeff Masters (right), Bob Henson (left), Chris Burt, and other regular contributors.

Nearby

Air Quality

  Air Quality AQ Index Pollutant
Not available.

Snow Depth

Station Depth Elevation

Earthquake Activity

City Distance Mag. Time & Date
Minimum magnitude displayed is 2.5.

Coastal Water Temperatures

Place Temperature

Stations

Nearby Weather Stations

Station Location Temp. Windchill Dew Point Humidity Wind Precip. Elev Updated Type
                   

Watches & Warnings

There are currently no watches in effect.